sensor_id;sensor_type;location;lat;lon;timestamp;P1;durP1;ratioP1;P2;durP2;ratioP2
36321;SDS011;23564;48.290;11.460;2023-02-18T00:00:16;5.80;;;2.88;;
36321;SDS011;23564;48.290;11.460;2023-02-18T00:02:43;5.40;;;3.35;;
36321;SDS011;23564;48.290;11.460;2023-02-18T00:05:10;6.28;;;2.92;;
36321;SDS011;23564;48.290;11.460;2023-02-18T00:07:36;4.75;;;2.78;;
36321;SDS011;23564;48.290;11.460;2023-02-18T00:10:04;7.85;;;2.92;;
36321;SDS011;23564;48.290;11.460;2023-02-18T00:12:31;6.80;;;3.30;;
36321;SDS011;23564;48.290;11.460;2023-02-18T00:14:56;10.35;;;3.20;;
36321;SDS011;23564;48.290;11.460;2023-02-18T00:17:22;6.78;;;3.30;;
36321;SDS011;23564;48.290;11.460;2023-02-18T00:19:48;6.28;;;2.80;;
36321;SDS011;23564;48.290;11.460;2023-02-18T00:22:13;4.78;;;2.95;;
36321;SDS011;23564;48.290;11.460;2023-02-18T00:24:39;7.00;;;3.45;;
36321;SDS011;23564;48.290;11.460;2023-02-18T00:27:05;6.50;;;3.70;;
36321;SDS011;23564;48.290;11.460;2023-02-18T00:29:30;6.85;;;3.13;;
36321;SDS011;23564;48.290;11.460;2023-02-18T00:31:56;7.10;;;3.58;;
36321;SDS011;23564;48.290;11.460;2023-02-18T00:34:22;6.82;;;3.25;;
36321;SDS011;23564;48.290;11.460;2023-02-18T00:36:48;7.75;;;3.30;;
36321;SDS011;23564;48.290;11.460;2023-02-18T00:39:13;7.32;;;3.30;;
36321;SDS011;23564;48.290;11.460;2023-02-18T00:41:39;6.53;;;3.17;;
36321;SDS011;23564;48.290;11.460;2023-02-18T00:44:05;5.82;;;3.22;;
36321;SDS011;23564;48.290;11.460;2023-02-18T00:46:31;6.40;;;3.30;;
36321;SDS011;23564;48.290;11.460;2023-02-18T00:48:57;7.80;;;3.42;;
36321;SDS011;23564;48.290;11.460;2023-02-18T00:51:23;6.10;;;3.00;;
36321;SDS011;23564;48.290;11.460;2023-02-18T00:53:52;6.95;;;3.40;;
36321;SDS011;23564;48.290;11.460;2023-02-18T00:56:17;5.00;;;2.85;;
36321;SDS011;23564;48.290;11.460;2023-02-18T00:58:44;9.93;;;3.47;;
36321;SDS011;23564;48.290;11.460;2023-02-18T01:01:09;7.57;;;3.38;;
36321;SDS011;23564;48.290;11.460;2023-02-18T01:03:36;6.72;;;3.15;;
36321;SDS011;23564;48.290;11.460;2023-02-18T01:06:04;4.28;;;2.83;;
36321;SDS011;23564;48.290;11.460;2023-02-18T01:08:30;6.82;;;3.47;;
36321;SDS011;23564;48.290;11.460;2023-02-18T01:10:56;4.90;;;2.75;;
36321;SDS011;23564;48.290;11.460;2023-02-18T01:13:23;6.25;;;3.03;;
36321;SDS011;23564;48.290;11.460;2023-02-18T01:15:48;5.85;;;3.00;;
36321;SDS011;23564;48.290;11.460;2023-02-18T01:18:14;8.25;;;2.92;;
36321;SDS011;23564;48.290;11.460;2023-02-18T01:20:41;7.40;;;3.30;;
36321;SDS011;23564;48.290;11.460;2023-02-18T01:23:08;6.68;;;3.45;;
36321;SDS011;23564;48.290;11.460;2023-02-18T01:25:34;6.70;;;2.67;;
36321;SDS011;23564;48.290;11.460;2023-02-18T01:28:00;8.38;;;3.00;;
36321;SDS011;23564;48.290;11.460;2023-02-18T01:30:25;6.78;;;3.50;;
36321;SDS011;23564;48.290;11.460;2023-02-18T01:32:51;4.97;;;2.95;;
36321;SDS011;23564;48.290;11.460;2023-02-18T01:35:18;8.63;;;3.78;;
36321;SDS011;23564;48.290;11.460;2023-02-18T01:37:44;7.38;;;3.55;;
36321;SDS011;23564;48.290;11.460;2023-02-18T01:40:11;5.97;;;3.15;;
36321;SDS011;23564;48.290;11.460;2023-02-18T01:42:38;4.40;;;3.13;;
36321;SDS011;23564;48.290;11.460;2023-02-18T01:48:11;6.22;;;3.63;;
36321;SDS011;23564;48.290;11.460;2023-02-18T01:50:39;6.22;;;3.17;;
36321;SDS011;23564;48.290;11.460;2023-02-18T01:53:07;8.15;;;3.17;;
36321;SDS011;23564;48.290;11.460;2023-02-18T01:55:33;5.35;;;3.13;;
36321;SDS011;23564;48.290;11.460;2023-02-18T01:57:59;4.78;;;3.05;;
36321;SDS011;23564;48.290;11.460;2023-02-18T02:00:25;6.18;;;3.08;;
36321;SDS011;23564;48.290;11.460;2023-02-18T02:02:51;5.13;;;3.30;;
36321;SDS011;23564;48.290;11.460;2023-02-18T02:05:18;7.03;;;3.42;;
36321;SDS011;23564;48.290;11.460;2023-02-18T02:07:45;6.13;;;2.50;;
36321;SDS011;23564;48.290;11.460;2023-02-18T02:10:13;7.55;;;3.13;;
36321;SDS011;23564;48.290;11.460;2023-02-18T02:15:48;6.00;;;3.10;;
36321;SDS011;23564;48.290;11.460;2023-02-18T02:18:33;5.57;;;3.13;;
36321;SDS011;23564;48.290;11.460;2023-02-18T02:27:20;11.10;;;3.80;;
36321;SDS011;23564;48.290;11.460;2023-02-18T02:30:03;8.90;;;4.07;;
36321;SDS011;23564;48.290;11.460;2023-02-18T02:35:14;6.43;;;3.90;;
36321;SDS011;23564;48.290;11.460;2023-02-18T02:37:53;8.60;;;3.92;;
36321;SDS011;23564;48.290;11.460;2023-02-18T02:53:30;6.55;;;4.38;;
36321;SDS011;23564;48.290;11.460;2023-02-18T02:55:59;11.38;;;4.63;;
36321;SDS011;23564;48.290;11.460;2023-02-18T02:58:25;6.38;;;4.10;;
36321;SDS011;23564;48.290;11.460;2023-02-18T03:03:32;6.15;;;3.88;;
36321;SDS011;23564;48.290;11.460;2023-02-18T03:08:56;7.05;;;3.83;;
36321;SDS011;23564;48.290;11.460;2023-02-18T03:11:36;6.32;;;4.03;;
36321;SDS011;23564;48.290;11.460;2023-02-18T03:16:49;7.30;;;3.83;;
36321;SDS011;23564;48.290;11.460;2023-02-18T03:19:28;6.72;;;3.40;;
36321;SDS011;23564;48.290;11.460;2023-02-18T03:22:00;6.65;;;3.30;;
36321;SDS011;23564;48.290;11.460;2023-02-18T03:24:36;7.50;;;3.97;;
36321;SDS011;23564;48.290;11.460;2023-02-18T03:27:11;9.35;;;3.97;;
36321;SDS011;23564;48.290;11.460;2023-02-18T03:29:48;5.75;;;3.85;;
36321;SDS011;23564;48.290;11.460;2023-02-18T03:32:18;5.23;;;3.40;;
36321;SDS011;23564;48.290;11.460;2023-02-18T03:34:48;11.60;;;3.95;;
36321;SDS011;23564;48.290;11.460;2023-02-18T03:37:17;5.68;;;4.13;;
36321;SDS011;23564;48.290;11.460;2023-02-18T03:39:44;6.07;;;3.60;;
36321;SDS011;23564;48.290;11.460;2023-02-18T03:42:15;8.98;;;3.83;;
36321;SDS011;23564;48.290;11.460;2023-02-18T03:44:42;5.85;;;3.90;;
36321;SDS011;23564;48.290;11.460;2023-02-18T03:47:08;6.55;;;3.88;;
36321;SDS011;23564;48.290;11.460;2023-02-18T03:49:33;7.45;;;4.07;;
36321;SDS011;23564;48.290;11.460;2023-02-18T03:51:59;6.72;;;3.35;;
36321;SDS011;23564;48.290;11.460;2023-02-18T03:54:25;5.85;;;3.70;;
36321;SDS011;23564;48.290;11.460;2023-02-18T03:56:50;5.40;;;3.40;;
36321;SDS011;23564;48.290;11.460;2023-02-18T03:59:16;9.52;;;3.72;;
36321;SDS011;23564;48.290;11.460;2023-02-18T04:01:41;6.03;;;3.58;;
36321;SDS011;23564;48.290;11.460;2023-02-18T04:04:07;7.68;;;3.70;;
36321;SDS011;23564;48.290;11.460;2023-02-18T04:06:32;3.97;;;3.05;;
36321;SDS011;23564;48.290;11.460;2023-02-18T04:08:58;7.57;;;3.92;;
36321;SDS011;23564;48.290;11.460;2023-02-18T04:11:24;4.55;;;3.33;;
36321;SDS011;23564;48.290;11.460;2023-02-18T04:13:49;4.25;;;2.78;;
36321;SDS011;23564;48.290;11.460;2023-02-18T04:16:15;5.90;;;3.25;;
36321;SDS011;23564;48.290;11.460;2023-02-18T04:18:41;5.68;;;3.05;;
36321;SDS011;23564;48.290;11.460;2023-02-18T04:21:06;4.22;;;3.13;;
36321;SDS011;23564;48.290;11.460;2023-02-18T04:23:32;4.82;;;2.85;;
36321;SDS011;23564;48.290;11.460;2023-02-18T04:25:58;3.97;;;2.75;;
36321;SDS011;23564;48.290;11.460;2023-02-18T04:28:23;5.45;;;2.80;;
36321;SDS011;23564;48.290;11.460;2023-02-18T04:30:49;4.68;;;2.67;;
36321;SDS011;23564;48.290;11.460;2023-02-18T04:33:14;3.17;;;2.30;;
36321;SDS011;23564;48.290;11.460;2023-02-18T04:35:40;2.97;;;2.40;;
36321;SDS011;23564;48.290;11.460;2023-02-18T04:38:06;3.78;;;2.95;;
36321;SDS011;23564;48.290;11.460;2023-02-18T04:40:32;3.03;;;2.28;;
36321;SDS011;23564;48.290;11.460;2023-02-18T04:42:58;4.68;;;2.20;;
36321;SDS011;23564;48.290;11.460;2023-02-18T04:45:25;2.28;;;2.03;;
36321;SDS011;23564;48.290;11.460;2023-02-18T04:47:50;4.10;;;1.90;;
36321;SDS011;23564;48.290;11.460;2023-02-18T04:50:16;3.80;;;2.40;;
36321;SDS011;23564;48.290;11.460;2023-02-18T04:52:42;3.97;;;2.10;;
36321;SDS011;23564;48.290;11.460;2023-02-18T04:55:08;2.65;;;1.80;;
36321;SDS011;23564;48.290;11.460;2023-02-18T04:57:33;1.85;;;1.73;;
36321;SDS011;23564;48.290;11.460;2023-02-18T04:59:59;2.83;;;2.17;;
36321;SDS011;23564;48.290;11.460;2023-02-18T05:02:25;2.63;;;1.55;;
36321;SDS011;23564;48.290;11.460;2023-02-18T05:04:50;6.10;;;1.45;;
36321;SDS011;23564;48.290;11.460;2023-02-18T05:07:16;2.13;;;1.70;;
36321;SDS011;23564;48.290;11.460;2023-02-18T05:09:41;3.00;;;1.63;;
36321;SDS011;23564;48.290;11.460;2023-02-18T05:12:07;2.50;;;1.90;;
36321;SDS011;23564;48.290;11.460;2023-02-18T05:14:33;2.92;;;1.55;;
36321;SDS011;23564;48.290;11.460;2023-02-18T05:16:58;2.22;;;1.38;;
36321;SDS011;23564;48.290;11.460;2023-02-18T05:19:24;1.92;;;1.55;;
36321;SDS011;23564;48.290;11.460;2023-02-18T05:21:49;3.88;;;2.10;;
36321;SDS011;23564;48.290;11.460;2023-02-18T05:24:15;4.28;;;1.42;;
36321;SDS011;23564;48.290;11.460;2023-02-18T05:26:40;3.00;;;1.50;;
36321;SDS011;23564;48.290;11.460;2023-02-18T05:29:06;2.22;;;1.60;;
36321;SDS011;23564;48.290;11.460;2023-02-18T05:31:32;2.90;;;1.40;;
36321;SDS011;23564;48.290;11.460;2023-02-18T05:33:57;2.05;;;1.55;;
36321;SDS011;23564;48.290;11.460;2023-02-18T05:36:23;2.22;;;1.73;;
36321;SDS011;23564;48.290;11.460;2023-02-18T05:38:49;3.00;;;1.65;;
36321;SDS011;23564;48.290;11.460;2023-02-18T05:41:14;4.55;;;2.45;;
36321;SDS011;23564;48.290;11.460;2023-02-18T05:43:40;1.73;;;1.30;;
36321;SDS011;23564;48.290;11.460;2023-02-18T05:46:35;3.03;;;1.85;;
36321;SDS011;23564;48.290;11.460;2023-02-18T05:49:00;2.08;;;1.60;;
36321;SDS011;23564;48.290;11.460;2023-02-18T05:51:26;2.08;;;1.52;;
36321;SDS011;23564;48.290;11.460;2023-02-18T05:53:52;2.17;;;1.48;;
36321;SDS011;23564;48.290;11.460;2023-02-18T05:56:17;2.25;;;1.50;;
36321;SDS011;23564;48.290;11.460;2023-02-18T05:58:43;2.58;;;1.50;;
36321;SDS011;23564;48.290;11.460;2023-02-18T06:01:09;4.57;;;1.63;;
36321;SDS011;23564;48.290;11.460;2023-02-18T06:03:35;1.95;;;1.58;;
36321;SDS011;23564;48.290;11.460;2023-02-18T06:06:00;1.92;;;1.48;;
36321;SDS011;23564;48.290;11.460;2023-02-18T06:08:26;3.90;;;1.58;;
36321;SDS011;23564;48.290;11.460;2023-02-18T06:10:52;1.17;;;1.08;;
36321;SDS011;23564;48.290;11.460;2023-02-18T06:13:17;1.50;;;1.10;;
36321;SDS011;23564;48.290;11.460;2023-02-18T06:15:43;2.15;;;1.20;;
36321;SDS011;23564;48.290;11.460;2023-02-18T06:18:08;3.20;;;1.17;;
36321;SDS011;23564;48.290;11.460;2023-02-18T06:20:34;2.60;;;1.50;;
36321;SDS011;23564;48.290;11.460;2023-02-18T06:22:59;2.88;;;1.30;;
36321;SDS011;23564;48.290;11.460;2023-02-18T06:25:25;1.50;;;1.02;;
36321;SDS011;23564;48.290;11.460;2023-02-18T06:27:50;2.55;;;1.33;;
36321;SDS011;23564;48.290;11.460;2023-02-18T06:30:16;3.05;;;1.30;;
36321;SDS011;23564;48.290;11.460;2023-02-18T06:32:42;3.15;;;1.27;;
36321;SDS011;23564;48.290;11.460;2023-02-18T06:35:07;2.58;;;1.17;;
36321;SDS011;23564;48.290;11.460;2023-02-18T06:37:33;2.22;;;1.20;;
36321;SDS011;23564;48.290;11.460;2023-02-18T06:39:59;2.67;;;1.60;;
36321;SDS011;23564;48.290;11.460;2023-02-18T06:42:24;2.72;;;1.45;;
36321;SDS011;23564;48.290;11.460;2023-02-18T06:44:50;4.60;;;1.60;;
36321;SDS011;23564;48.290;11.460;2023-02-18T06:47:15;2.97;;;1.60;;
36321;SDS011;23564;48.290;11.460;2023-02-18T06:49:41;4.50;;;1.42;;
36321;SDS011;23564;48.290;11.460;2023-02-18T06:52:06;1.33;;;1.10;;
36321;SDS011;23564;48.290;11.460;2023-02-18T06:54:32;1.20;;;1.08;;
36321;SDS011;23564;48.290;11.460;2023-02-18T06:56:58;6.25;;;3.08;;
36321;SDS011;23564;48.290;11.460;2023-02-18T06:59:24;3.90;;;1.50;;
36321;SDS011;23564;48.290;11.460;2023-02-18T07:01:50;1.60;;;1.25;;
36321;SDS011;23564;48.290;11.460;2023-02-18T07:04:15;4.85;;;2.75;;
36321;SDS011;23564;48.290;11.460;2023-02-18T07:06:41;5.93;;;3.90;;
36321;SDS011;23564;48.290;11.460;2023-02-18T07:09:06;30.42;;;14.80;;
36321;SDS011;23564;48.290;11.460;2023-02-18T07:11:32;11.60;;;6.40;;
36321;SDS011;23564;48.290;11.460;2023-02-18T07:13:57;13.20;;;7.53;;
36321;SDS011;23564;48.290;11.460;2023-02-18T07:16:23;2.30;;;2.00;;
36321;SDS011;23564;48.290;11.460;2023-02-18T07:18:48;1.83;;;1.10;;
36321;SDS011;23564;48.290;11.460;2023-02-18T07:21:14;1.50;;;0.93;;
36321;SDS011;23564;48.290;11.460;2023-02-18T07:23:40;1.30;;;0.90;;
36321;SDS011;23564;48.290;11.460;2023-02-18T07:26:06;1.10;;;1.00;;
36321;SDS011;23564;48.290;11.460;2023-02-18T07:28:33;1.20;;;0.90;;
36321;SDS011;23564;48.290;11.460;2023-02-18T07:30:59;1.23;;;0.70;;
36321;SDS011;23564;48.290;11.460;2023-02-18T07:33:25;1.52;;;0.82;;
36321;SDS011;23564;48.290;11.460;2023-02-18T07:35:57;2.55;;;1.10;;
36321;SDS011;23564;48.290;11.460;2023-02-18T07:38:24;1.20;;;0.68;;
36321;SDS011;23564;48.290;11.460;2023-02-18T07:40:50;1.50;;;0.85;;
36321;SDS011;23564;48.290;11.460;2023-02-18T07:43:17;1.08;;;0.80;;
36321;SDS011;23564;48.290;11.460;2023-02-18T07:45:43;0.95;;;0.70;;
36321;SDS011;23564;48.290;11.460;2023-02-18T07:48:09;0.93;;;0.80;;
36321;SDS011;23564;48.290;11.460;2023-02-18T07:50:37;0.82;;;0.82;;
36321;SDS011;23564;48.290;11.460;2023-02-18T07:53:04;0.73;;;0.60;;
36321;SDS011;23564;48.290;11.460;2023-02-18T07:55:30;1.15;;;0.80;;
36321;SDS011;23564;48.290;11.460;2023-02-18T07:58:24;2.50;;;0.70;;
36321;SDS011;23564;48.290;11.460;2023-02-18T08:00:52;1.60;;;0.82;;
36321;SDS011;23564;48.290;11.460;2023-02-18T08:03:19;0.60;;;0.60;;
36321;SDS011;23564;48.290;11.460;2023-02-18T08:05:47;1.23;;;0.80;;
36321;SDS011;23564;48.290;11.460;2023-02-18T08:08:14;0.88;;;0.65;;
36321;SDS011;23564;48.290;11.460;2023-02-18T08:10:41;0.93;;;0.77;;
36321;SDS011;23564;48.290;11.460;2023-02-18T08:13:07;1.27;;;0.88;;
36321;SDS011;23564;48.290;11.460;2023-02-18T08:15:33;0.88;;;0.77;;
36321;SDS011;23564;48.290;11.460;2023-02-18T08:17:59;1.20;;;0.60;;
36321;SDS011;23564;48.290;11.460;2023-02-18T08:20:25;0.50;;;0.50;;
36321;SDS011;23564;48.290;11.460;2023-02-18T08:22:51;4.13;;;0.73;;
36321;SDS011;23564;48.290;11.460;2023-02-18T08:25:17;1.40;;;0.80;;
36321;SDS011;23564;48.290;11.460;2023-02-18T08:27:42;0.50;;;0.40;;
36321;SDS011;23564;48.290;11.460;2023-02-18T08:30:08;1.48;;;0.50;;
36321;SDS011;23564;48.290;11.460;2023-02-18T08:32:34;1.83;;;0.70;;
36321;SDS011;23564;48.290;11.460;2023-02-18T08:35:00;1.30;;;0.40;;
36321;SDS011;23564;48.290;11.460;2023-02-18T08:37:25;0.70;;;0.60;;
36321;SDS011;23564;48.290;11.460;2023-02-18T08:39:51;3.42;;;0.60;;
36321;SDS011;23564;48.290;11.460;2023-02-18T08:42:17;0.77;;;0.57;;
36321;SDS011;23564;48.290;11.460;2023-02-18T08:44:42;1.00;;;0.90;;
36321;SDS011;23564;48.290;11.460;2023-02-18T08:47:08;3.50;;;0.50;;
36321;SDS011;23564;48.290;11.460;2023-02-18T08:49:33;0.93;;;0.57;;
36321;SDS011;23564;48.290;11.460;2023-02-18T08:52:00;0.50;;;0.50;;
36321;SDS011;23564;48.290;11.460;2023-02-18T08:54:27;1.02;;;0.75;;
36321;SDS011;23564;48.290;11.460;2023-02-18T08:56:56;0.85;;;0.65;;
36321;SDS011;23564;48.290;11.460;2023-02-18T08:59:22;7.10;;;1.77;;
36321;SDS011;23564;48.290;11.460;2023-02-18T09:01:48;0.47;;;0.47;;
36321;SDS011;23564;48.290;11.460;2023-02-18T09:04:14;1.35;;;0.90;;
36321;SDS011;23564;48.290;11.460;2023-02-18T09:06:40;6.43;;;3.95;;
36321;SDS011;23564;48.290;11.460;2023-02-18T09:09:06;10.35;;;6.35;;
36321;SDS011;23564;48.290;11.460;2023-02-18T09:11:32;6.50;;;3.95;;
36321;SDS011;23564;48.290;11.460;2023-02-18T09:13:58;0.98;;;0.77;;
36321;SDS011;23564;48.290;11.460;2023-02-18T09:16:23;2.53;;;0.93;;
36321;SDS011;23564;48.290;11.460;2023-02-18T09:18:50;0.50;;;0.50;;
36321;SDS011;23564;48.290;11.460;2023-02-18T09:21:16;0.77;;;0.60;;
36321;SDS011;23564;48.290;11.460;2023-02-18T09:23:44;2.67;;;0.57;;
36321;SDS011;23564;48.290;11.460;2023-02-18T09:26:13;1.42;;;0.73;;
36321;SDS011;23564;48.290;11.460;2023-02-18T09:28:41;1.83;;;0.88;;
36321;SDS011;23564;48.290;11.460;2023-02-18T09:31:08;6.05;;;0.80;;
36321;SDS011;23564;48.290;11.460;2023-02-18T09:33:38;3.75;;;0.60;;
36321;SDS011;23564;48.290;11.460;2023-02-18T09:36:07;2.03;;;0.80;;
36321;SDS011;23564;48.290;11.460;2023-02-18T09:38:33;5.53;;;1.10;;
36321;SDS011;23564;48.290;11.460;2023-02-18T09:40:59;1.35;;;0.82;;
36321;SDS011;23564;48.290;11.460;2023-02-18T09:43:41;4.18;;;0.98;;
36321;SDS011;23564;48.290;11.460;2023-02-18T09:48:47;1.95;;;0.73;;
36321;SDS011;23564;48.290;11.460;2023-02-18T09:51:13;1.77;;;0.93;;
36321;SDS011;23564;48.290;11.460;2023-02-18T09:53:41;1.20;;;0.90;;
36321;SDS011;23564;48.290;11.460;2023-02-18T09:56:15;3.75;;;1.23;;
36321;SDS011;23564;48.290;11.460;2023-02-18T09:58:48;6.45;;;1.02;;
36321;SDS011;23564;48.290;11.460;2023-02-18T10:01:19;1.55;;;0.60;;
36321;SDS011;23564;48.290;11.460;2023-02-18T10:03:51;0.77;;;0.70;;
36321;SDS011;23564;48.290;11.460;2023-02-18T10:06:19;1.45;;;0.93;;
36321;SDS011;23564;48.290;11.460;2023-02-18T10:08:49;1.90;;;1.00;;
36321;SDS011;23564;48.290;11.460;2023-02-18T10:11:27;6.63;;;1.65;;
36321;SDS011;23564;48.290;11.460;2023-02-18T10:13:55;10.77;;;2.13;;
36321;SDS011;23564;48.290;11.460;2023-02-18T10:16:24;1.55;;;1.00;;
36321;SDS011;23564;48.290;11.460;2023-02-18T10:18:52;1.70;;;1.00;;
36321;SDS011;23564;48.290;11.460;2023-02-18T10:21:21;2.53;;;0.68;;
36321;SDS011;23564;48.290;11.460;2023-02-18T10:24:00;1.17;;;0.70;;
36321;SDS011;23564;48.290;11.460;2023-02-18T10:26:45;2.97;;;0.90;;
36321;SDS011;23564;48.290;11.460;2023-02-18T10:29:17;1.95;;;0.93;;
36321;SDS011;23564;48.290;11.460;2023-02-18T10:32:28;1.05;;;0.60;;
36321;SDS011;23564;48.290;11.460;2023-02-18T10:37:26;2.85;;;0.70;;
36321;SDS011;23564;48.290;11.460;2023-02-18T10:40:22;2.45;;;0.85;;
36321;SDS011;23564;48.290;11.460;2023-02-18T10:45:40;0.75;;;0.65;;
36321;SDS011;23564;48.290;11.460;2023-02-18T10:48:48;4.28;;;1.02;;
36321;SDS011;23564;48.290;11.460;2023-02-18T10:51:28;1.38;;;0.73;;
36321;SDS011;23564;48.290;11.460;2023-02-18T10:53:57;1.63;;;0.88;;
36321;SDS011;23564;48.290;11.460;2023-02-18T10:59:21;2.47;;;0.90;;
36321;SDS011;23564;48.290;11.460;2023-02-18T11:01:55;3.13;;;1.25;;
36321;SDS011;23564;48.290;11.460;2023-02-18T11:04:27;1.80;;;1.20;;
36321;SDS011;23564;48.290;11.460;2023-02-18T11:07:05;2.28;;;1.23;;
36321;SDS011;23564;48.290;11.460;2023-02-18T11:09:40;5.00;;;1.52;;
36321;SDS011;23564;48.290;11.460;2023-02-18T11:12:16;2.30;;;1.17;;
36321;SDS011;23564;48.290;11.460;2023-02-18T11:17:52;3.37;;;1.70;;
36321;SDS011;23564;48.290;11.460;2023-02-18T11:20:35;0.90;;;0.70;;
36321;SDS011;23564;48.290;11.460;2023-02-18T11:25:30;6.68;;;1.05;;
36321;SDS011;23564;48.290;11.460;2023-02-18T11:28:03;2.72;;;1.10;;
36321;SDS011;23564;48.290;11.460;2023-02-18T11:30:36;2.45;;;1.02;;
36321;SDS011;23564;48.290;11.460;2023-02-18T11:33:15;1.65;;;0.82;;
36321;SDS011;23564;48.290;11.460;2023-02-18T11:35:50;2.25;;;1.30;;
36321;SDS011;23564;48.290;11.460;2023-02-18T11:38:28;1.73;;;1.00;;
36321;SDS011;23564;48.290;11.460;2023-02-18T11:41:09;1.08;;;0.68;;
36321;SDS011;23564;48.290;11.460;2023-02-18T11:43:39;1.00;;;0.80;;
36321;SDS011;23564;48.290;11.460;2023-02-18T11:46:07;1.83;;;1.08;;
36321;SDS011;23564;48.290;11.460;2023-02-18T11:48:35;1.00;;;0.63;;
36321;SDS011;23564;48.290;11.460;2023-02-18T11:51:01;5.00;;;0.80;;
36321;SDS011;23564;48.290;11.460;2023-02-18T11:55:55;1.27;;;0.80;;
36321;SDS011;23564;48.290;11.460;2023-02-18T11:58:26;2.47;;;0.80;;
36321;SDS011;23564;48.290;11.460;2023-02-18T12:00:58;2.17;;;0.80;;
36321;SDS011;23564;48.290;11.460;2023-02-18T12:03:32;5.60;;;1.25;;
36321;SDS011;23564;48.290;11.460;2023-02-18T12:11:48;2.58;;;1.02;;
36321;SDS011;23564;48.290;11.460;2023-02-18T12:14:21;2.15;;;0.77;;
36321;SDS011;23564;48.290;11.460;2023-02-18T12:22:38;1.13;;;0.77;;
36321;SDS011;23564;48.290;11.460;2023-02-18T12:30:55;1.80;;;0.80;;
36321;SDS011;23564;48.290;11.460;2023-02-18T12:33:41;1.58;;;0.63;;
36321;SDS011;23564;48.290;11.460;2023-02-18T12:38:54;1.58;;;0.77;;
36321;SDS011;23564;48.290;11.460;2023-02-18T13:06:11;0.50;;;0.50;;
36321;SDS011;23564;48.290;11.460;2023-02-18T13:09:09;6.25;;;0.77;;
36321;SDS011;23564;48.290;11.460;2023-02-18T13:14:32;2.95;;;0.50;;
36321;SDS011;23564;48.290;11.460;2023-02-18T13:17:08;2.17;;;0.63;;
36321;SDS011;23564;48.290;11.460;2023-02-18T13:19:51;1.05;;;0.82;;
36321;SDS011;23564;48.290;11.460;2023-02-18T13:22:22;1.45;;;0.68;;
36321;SDS011;23564;48.290;11.460;2023-02-18T13:24:49;1.85;;;0.65;;
36321;SDS011;23564;48.290;11.460;2023-02-18T13:27:40;1.38;;;0.60;;
36321;SDS011;23564;48.290;11.460;2023-02-18T13:33:11;0.95;;;0.55;;
36321;SDS011;23564;48.290;11.460;2023-02-18T13:38:46;1.38;;;0.68;;
36321;SDS011;23564;48.290;11.460;2023-02-18T13:41:17;2.75;;;0.57;;
36321;SDS011;23564;48.290;11.460;2023-02-18T13:43:44;1.63;;;0.82;;
36321;SDS011;23564;48.290;11.460;2023-02-18T13:46:18;1.02;;;0.80;;
36321;SDS011;23564;48.290;11.460;2023-02-18T13:51:32;0.73;;;0.63;;
36321;SDS011;23564;48.290;11.460;2023-02-18T13:56:42;1.13;;;0.70;;
36321;SDS011;23564;48.290;11.460;2023-02-18T14:04:53;0.80;;;0.55;;
36321;SDS011;23564;48.290;11.460;2023-02-18T14:12:42;1.23;;;0.68;;
36321;SDS011;23564;48.290;11.460;2023-02-18T14:25:53;1.60;;;0.75;;
36321;SDS011;23564;48.290;11.460;2023-02-18T14:28:56;1.52;;;0.50;;
36321;SDS011;23564;48.290;11.460;2023-02-18T14:31:24;1.20;;;0.80;;
36321;SDS011;23564;48.290;11.460;2023-02-18T14:34:07;2.25;;;0.90;;
36321;SDS011;23564;48.290;11.460;2023-02-18T14:42:19;3.05;;;0.80;;
36321;SDS011;23564;48.290;11.460;2023-02-18T14:50:19;3.03;;;0.60;;
36321;SDS011;23564;48.290;11.460;2023-02-18T14:52:49;1.23;;;0.73;;
36321;SDS011;23564;48.290;11.460;2023-02-18T14:55:20;3.25;;;0.60;;
36321;SDS011;23564;48.290;11.460;2023-02-18T15:00:32;1.10;;;0.82;;
36321;SDS011;23564;48.290;11.460;2023-02-18T15:03:03;3.65;;;0.70;;
36321;SDS011;23564;48.290;11.460;2023-02-18T15:05:29;2.22;;;0.68;;
36321;SDS011;23564;48.290;11.460;2023-02-18T15:08:03;2.00;;;0.60;;
36321;SDS011;23564;48.290;11.460;2023-02-18T15:13:31;1.40;;;0.85;;
36321;SDS011;23564;48.290;11.460;2023-02-18T15:16:45;3.05;;;0.77;;
36321;SDS011;23564;48.290;11.460;2023-02-18T15:19:06;3.75;;;0.90;;
36321;SDS011;23564;48.290;11.460;2023-02-18T15:21:45;6.50;;;1.40;;
36321;SDS011;23564;48.290;11.460;2023-02-18T15:27:02;5.05;;;1.17;;
36321;SDS011;23564;48.290;11.460;2023-02-18T15:29:36;2.28;;;0.82;;
36321;SDS011;23564;48.290;11.460;2023-02-18T15:32:13;6.78;;;0.93;;
36321;SDS011;23564;48.290;11.460;2023-02-18T15:34:39;0.98;;;0.77;;
36321;SDS011;23564;48.290;11.460;2023-02-18T15:37:09;2.05;;;0.80;;
36321;SDS011;23564;48.290;11.460;2023-02-18T15:39:37;1.92;;;1.00;;
36321;SDS011;23564;48.290;11.460;2023-02-18T15:44:52;2.53;;;0.77;;
36321;SDS011;23564;48.290;11.460;2023-02-18T15:47:26;1.45;;;0.68;;
36321;SDS011;23564;48.290;11.460;2023-02-18T15:49:53;5.47;;;1.05;;
36321;SDS011;23564;48.290;11.460;2023-02-18T15:52:25;2.00;;;0.70;;
36321;SDS011;23564;48.290;11.460;2023-02-18T15:54:52;1.45;;;0.70;;
36321;SDS011;23564;48.290;11.460;2023-02-18T15:57:19;0.73;;;0.63;;
36321;SDS011;23564;48.290;11.460;2023-02-18T15:59:54;1.10;;;0.80;;
36321;SDS011;23564;48.290;11.460;2023-02-18T16:02:48;4.40;;;1.00;;
36321;SDS011;23564;48.290;11.460;2023-02-18T16:05:18;1.67;;;1.05;;
36321;SDS011;23564;48.290;11.460;2023-02-18T16:07:51;1.88;;;0.90;;
36321;SDS011;23564;48.290;11.460;2023-02-18T16:10:22;2.80;;;0.80;;
36321;SDS011;23564;48.290;11.460;2023-02-18T16:13:00;3.38;;;0.82;;
36321;SDS011;23564;48.290;11.460;2023-02-18T16:15:28;2.42;;;0.93;;
36321;SDS011;23564;48.290;11.460;2023-02-18T16:17:55;1.10;;;0.60;;
36321;SDS011;23564;48.290;11.460;2023-02-18T16:20:32;1.33;;;0.70;;
36321;SDS011;23564;48.290;11.460;2023-02-18T16:23:03;2.25;;;0.80;;
36321;SDS011;23564;48.290;11.460;2023-02-18T16:25:42;0.77;;;0.57;;
36321;SDS011;23564;48.290;11.460;2023-02-18T16:28:15;0.88;;;0.68;;
36321;SDS011;23564;48.290;11.460;2023-02-18T16:30:47;4.03;;;1.00;;
36321;SDS011;23564;48.290;11.460;2023-02-18T16:33:12;1.83;;;1.00;;
36321;SDS011;23564;48.290;11.460;2023-02-18T16:35:38;2.15;;;0.98;;
36321;SDS011;23564;48.290;11.460;2023-02-18T16:38:05;3.92;;;1.77;;
36321;SDS011;23564;48.290;11.460;2023-02-18T16:40:34;1.58;;;1.05;;
36321;SDS011;23564;48.290;11.460;2023-02-18T16:43:12;1.58;;;1.00;;
36321;SDS011;23564;48.290;11.460;2023-02-18T16:45:46;1.40;;;1.00;;
36321;SDS011;23564;48.290;11.460;2023-02-18T16:48:22;1.10;;;0.82;;
36321;SDS011;23564;48.290;11.460;2023-02-18T16:51:11;1.00;;;0.70;;
36321;SDS011;23564;48.290;11.460;2023-02-18T16:53:43;3.70;;;2.35;;
36321;SDS011;23564;48.290;11.460;2023-02-18T16:56:16;11.20;;;4.82;;
36321;SDS011;23564;48.290;11.460;2023-02-18T16:58:43;2.90;;;2.10;;
36321;SDS011;23564;48.290;11.460;2023-02-18T17:01:22;1.48;;;1.00;;
36321;SDS011;23564;48.290;11.460;2023-02-18T17:06:17;2.00;;;1.10;;
36321;SDS011;23564;48.290;11.460;2023-02-18T17:08:43;1.20;;;1.00;;
36321;SDS011;23564;48.290;11.460;2023-02-18T17:11:14;1.98;;;1.10;;
36321;SDS011;23564;48.290;11.460;2023-02-18T17:13:46;1.10;;;0.73;;
36321;SDS011;23564;48.290;11.460;2023-02-18T17:16:13;2.75;;;1.15;;
36321;SDS011;23564;48.290;11.460;2023-02-18T17:18:38;1.85;;;1.02;;
36321;SDS011;23564;48.290;11.460;2023-02-18T17:21:07;3.72;;;1.00;;
36321;SDS011;23564;48.290;11.460;2023-02-18T17:23:38;1.70;;;1.10;;
36321;SDS011;23564;48.290;11.460;2023-02-18T17:26:08;2.33;;;1.00;;